TimePDT,TemperatureF,Dew PointF,Humidity,Sea Level PressureIn,VisibilityMPH,Wind Direction,Wind SpeedMPH,Gust SpeedMPH,PrecipitationIn,Events,Conditions,WindDirDegrees,DateUTC
12:15 AM,62.6,51.8,68,30.02,10.0,West,4.6,-,N/A,,Clear,280,2013-09-23 07:15:00
12:35 AM,62.6,53.6,72,30.02,10.0,WNW,5.8,-,N/A,,Clear,290,2013-09-23 07:35:00
12:55 AM,62.6,51.8,68,30.02,10.0,WNW,5.8,-,N/A,,Clear,290,2013-09-23 07:55:00
1:15 AM,60.8,51.8,72,30.01,10.0,WNW,4.6,-,N/A,,Clear,290,2013-09-23 08:15:00
1:35 AM,60.8,51.8,72,30.02,10.0,Calm,Calm,-,N/A,,Clear,0,2013-09-23 08:35:00
1:55 AM,60.8,51.8,72,30.01,10.0,Calm,Calm,-,N/A,,Clear,0,2013-09-23 08:55:00
2:15 AM,60.8,50.0,68,30.01,10.0,Calm,Calm,-,N/A,,Clear,0,2013-09-23 09:15:00
2:35 AM,60.8,51.8,72,30.01,10.0,Calm,Calm,-,N/A,,Clear,0,2013-09-23 09:35:00
2:55 AM,59.0,51.8,77,30.01,10.0,South,3.5,-,N/A,,Clear,170,2013-09-23 09:55:00
3:15 AM,59.0,51.8,77,30.00,10.0,Calm,Calm,-,N/A,,Clear,0,2013-09-23 10:15:00
3:35 AM,57.2,51.8,82,30.00,10.0,South,3.5,-,N/A,,Clear,180,2013-09-23 10:35:00
3:55 AM,57.2,51.8,82,30.00,10.0,SSW,3.5,-,N/A,,Clear,210,2013-09-23 10:55:00
4:15 AM,57.2,50.0,77,29.99,10.0,SW,3.5,-,N/A,,Clear,230,2013-09-23 11:15:00
4:35 AM,57.2,50.0,77,29.99,10.0,Calm,Calm,-,N/A,,Clear,0,2013-09-23 11:35:00
4:55 AM,57.2,50.0,77,30.00,10.0,Calm,Calm,-,N/A,,Clear,0,2013-09-23 11:55:00
5:15 AM,57.2,50.0,77,30.00,10.0,Calm,Calm,-,N/A,,Clear,0,2013-09-23 12:15:00
5:35 AM,57.2,50.0,77,30.00,10.0,Calm,Calm,-,N/A,,Clear,0,2013-09-23 12:35:00
5:55 AM,57.2,51.8,82,30.00,10.0,Calm,Calm,-,N/A,,Clear,0,2013-09-23 12:55:00
6:15 AM,57.2,50.0,77,30.00,10.0,Calm,Calm,-,N/A,,Clear,0,2013-09-23 13:15:00
6:35 AM,55.4,50.0,82,30.01,10.0,Calm,Calm,-,N/A,,Clear,0,2013-09-23 13:35:00
6:48 AM,57.2,50.0,77,30.01,10.0,Calm,Calm,-,N/A,,Clear,0,2013-09-23 13:48:00
6:55 AM,57.2,50.0,77,30.01,10.0,Calm,Calm,-,N/A,,Clear,0,2013-09-23 13:55:00
7:47 AM,57.2,51.8,82,30.02,10.0,Calm,Calm,-,N/A,,Clear,0,2013-09-23 14:47:00
8:47 AM,62.6,53.6,72,30.03,10.0,Calm,Calm,-,N/A,,Clear,0,2013-09-23 15:47:00
9:56 AM,66.2,53.6,64,30.04,10.0,Calm,Calm,-,N/A,,Clear,0,2013-09-23 16:56:00
10:49 AM,68.0,53.6,60,30.03,10.0,NNE,4.6,-,N/A,,Clear,30,2013-09-23 17:49:00
11:55 AM,71.6,53.6,53,30.03,10.0,North,8.1,-,N/A,,Clear,360,2013-09-23 18:55:00
12:47 PM,73.4,53.6,50,30.01,10.0,NNW,8.1,-,N/A,,Clear,330,2013-09-23 19:47:00
1:47 PM,73.4,55.4,53,29.99,10.0,North,4.6,-,N/A,,Clear,350,2013-09-23 20:47:00
2:47 PM,78.8,51.8,39,29.97,10.0,NNW,6.9,-,N/A,,Clear,330,2013-09-23 21:47:00
3:51 PM,80.6,55.4,42,29.95,10.0,NNW,8.1,-,N/A,,Clear,330,2013-09-23 22:51:00
4:48 PM,77.0,57.2,50,29.95,10.0,NW,10.4,-,N/A,,Clear,310,2013-09-23 23:48:00
5:48 PM,75.2,57.2,53,29.95,10.0,West,12.7,-,N/A,,Clear,270,2013-09-24 00:48:00
6:55 PM,71.6,57.2,60,29.95,10.0,West,13.8,19.6,N/A,,Clear,280,2013-09-24 01:55:00
7:55 PM,68.0,57.2,68,29.95,10.0,West,12.7,18.4,N/A,,Clear,280,2013-09-24 02:55:00
8:50 PM,68.0,55.4,64,29.97,10.0,WNW,10.4,17.3,N/A,,Clear,290,2013-09-24 03:50:00
9:15 PM,68.0,55.4,64,29.98,10.0,WNW,10.4,-,N/A,,Clear,300,2013-09-24 04:15:00
9:35 PM,66.2,55.4,68,29.98,10.0,WNW,5.8,-,N/A,,Clear,300,2013-09-24 04:35:00
9:55 PM,66.2,53.6,64,29.98,10.0,WNW,6.9,-,N/A,,Clear,290,2013-09-24 04:55:00
10:15 PM,66.2,53.6,64,29.98,10.0,West,6.9,-,N/A,,Clear,270,2013-09-24 05:15:00
10:35 PM,66.2,53.6,64,29.98,10.0,West,8.1,-,N/A,,Clear,260,2013-09-24 05:35:00
10:55 PM,66.2,53.6,64,29.98,10.0,WSW,5.8,-,N/A,,Clear,240,2013-09-24 05:55:00
11:15 PM,66.2,53.6,64,29.97,10.0,SW,3.5,-,N/A,,Clear,220,2013-09-24 06:15:00
11:35 PM,66.2,53.6,64,29.97,10.0,Calm,Calm,-,N/A,,Clear,0,2013-09-24 06:35:00
11:55 PM,64.4,55.4,73,29.97,10.0,North,5.8,-,N/A,,Clear,360,2013-09-24 06:55:00